Time;durP1;ratioP1;P1;durP2;ratioP2;P2;SDS_P1;SDS_P2;PMS_P1;PMS_P2;Temp;Humidity;BMP_temperature;BMP_pressure;BME280_temperature;BME280_humidity;BME280_pressure;Samples;Min_cycle;Max_cycle;Signal;HPM_P1;HPM_P2
2023/07/17 00:00:15;;;;;;;;;;;17.90;1.00;;;;;;5006882;28;19936;-81
2023/07/17 00:02:41;;;;;;;;;;;17.90;99.90;;;;;;5041917;28;19932;-80
2023/07/17 00:05:07;;;;;;;;;;;17.80;78.90;;;;;;5054991;28;20292;-83
2023/07/17 00:07:33;;;;;;;;;;;17.90;99.90;;;;;;5054768;28;19932;-81
2023/07/17 00:09:59;;;;;;;;;;;17.90;1.00;;;;;;5023122;28;19925;-81
2023/07/17 00:12:25;;;;;;;;;;;17.80;99.90;;;;;;5006637;28;19928;-82
2023/07/17 00:14:50;;;;;;;;;;;17.80;99.90;;;;;;5020037;28;20224;-81
2023/07/17 00:17:16;;;;;;;;;;;17.80;99.90;;;;;;5013843;28;19933;-85
2023/07/17 00:19:51;;;;;;;;;;;17.80;99.90;;;;;;5026462;28;20545;-86
2023/07/17 00:22:18;;;;;;;;;;;17.80;99.90;;;;;;5064652;28;20018;-79
2023/07/17 00:24:43;;;;;;;;;;;17.80;99.90;;;;;;5025100;28;19940;-82
2023/07/17 00:27:09;;;;;;;;;;;17.80;99.90;;;;;;5058900;28;19944;-83
2023/07/17 00:29:34;;;;;;;;;;;17.80;99.90;;;;;;5059556;28;19936;-84
2023/07/17 00:32:00;;;;;;;;;;;17.80;1.00;;;;;;5047241;28;20472;-82
2023/07/17 00:34:26;;;;;;;;;;;17.70;99.90;;;;;;5033785;28;19925;-84
2023/07/17 00:36:52;;;;;;;;;;;17.70;99.90;;;;;;5061678;28;19929;-82
2023/07/17 00:39:19;;;;;;;;;;;17.70;1.00;;;;;;5039939;28;19932;-84
2023/07/17 00:41:44;;;;;;;;;;;17.70;99.90;;;;;;5065118;28;19932;-83
2023/07/17 00:44:10;;;;;;;;;;;17.60;99.90;;;;;;5036013;28;19963;-81
2023/07/17 00:46:36;;;;;;;;;;;17.60;99.90;;;;;;5032368;28;19928;-83
2023/07/17 00:49:03;;;;;;;;;;;17.60;1.00;;;;;;5036413;28;19943;-81
2023/07/17 00:51:30;;;;;;;;;;;17.60;99.90;;;;;;5013670;28;20027;-83
2023/07/17 00:53:55;;;;;;;;;;;17.60;1.00;;;;;;5067983;28;20681;-82
2023/07/17 00:56:21;;;;;;;;;;;17.60;1.00;;;;;;5052478;28;19928;-83
2023/07/17 00:58:47;;;;;;;;;;;17.50;1.00;;;;;;5035080;28;19960;-83
2023/07/17 01:01:13;;;;;;;;;;;17.50;1.00;;;;;;5029925;28;19929;-84
2023/07/17 01:03:39;;;;;;;;;;;17.50;99.90;;;;;;5008650;28;20057;-84
2023/07/17 01:06:04;;;;;;;;;;;17.50;99.90;;;;;;5017620;28;19942;-82
2023/07/17 01:08:31;;;;;;;;;;;17.50;1.00;;;;;;5027460;28;19928;-82
2023/07/17 01:10:56;;;;;;;;;;;17.50;99.90;;;;;;5031998;28;19968;-82
2023/07/17 01:13:22;;;;;;;;;;;17.50;99.90;;;;;;5027030;28;20067;-82
2023/07/17 01:15:47;;;;;;;;;;;17.50;1.00;;;;;;5027054;28;20029;-84
2023/07/17 01:18:13;;;;;;;;;;;17.50;1.00;;;;;;5057441;28;19971;-83
2023/07/17 01:20:39;;;;;;;;;;;17.40;9.30;;;;;;5061078;28;19928;-83
2023/07/17 01:23:05;;;;;;;;;;;17.40;1.00;;;;;;5026188;28;19935;-77
2023/07/17 01:25:37;;;;;;;;;;;17.40;50.50;;;;;;5009462;28;19951;-79
2023/07/17 01:28:03;;;;;;;;;;;17.40;99.90;;;;;;5007323;28;19929;-77
2023/07/17 01:30:28;;;;;;;;;;;17.40;99.90;;;;;;5025069;28;19959;-77
2023/07/17 01:32:54;;;;;;;;;;;17.40;99.90;;;;;;5040537;28;19928;-78
2023/07/17 01:35:19;;;;;;;;;;;17.40;99.90;;;;;;5006418;28;20286;-79
2023/07/17 01:37:45;;;;;;;;;;;17.40;99.90;;;;;;5026659;28;20604;-75
2023/07/17 01:40:12;;;;;;;;;;;17.40;99.90;;;;;;5018587;28;19936;-77
2023/07/17 01:42:46;;;;;;;;;;;17.30;1.00;;;;;;5025086;28;19943;-76
2023/07/17 01:45:15;;;;;;;;;;;17.40;1.00;;;;;;5033993;28;19974;-83
2023/07/17 01:47:57;;;;;;;;;;;17.30;1.00;;;;;;5016333;28;20207;-81
2023/07/17 01:50:29;;;;;;;;;;;17.30;1.00;;;;;;5023202;28;19924;-78
2023/07/17 01:52:55;;;;;;;;;;;17.30;1.00;;;;;;5030266;28;19929;-80
2023/07/17 01:55:20;;;;;;;;;;;17.40;1.00;;;;;;4999357;28;20524;-79
2023/07/17 01:57:46;;;;;;;;;;;17.40;1.00;;;;;;5022675;28;19933;-83
2023/07/17 02:00:12;;;;;;;;;;;17.40;1.00;;;;;;5019607;28;19921;-81
2023/07/17 02:02:38;;;;;;;;;;;17.40;1.00;;;;;;5021710;28;20467;-81
2023/07/17 02:05:04;;;;;;;;;;;17.40;1.00;;;;;;5006476;28;19931;-79
2023/07/17 02:07:30;;;;;;;;;;;17.40;1.00;;;;;;5053110;28;19924;-81
2023/07/17 02:09:55;;;;;;;;;;;17.40;1.00;;;;;;5021012;28;19928;-82
2023/07/17 02:12:21;;;;;;;;;;;17.40;1.00;;;;;;5023764;28;19987;-81
2023/07/17 02:14:46;;;;;;;;;;;17.40;1.00;;;;;;5023915;28;19979;-81
2023/07/17 02:17:12;;;;;;;;;;;17.30;1.00;;;;;;5017361;28;20303;-82
2023/07/17 02:19:38;;;;;;;;;;;17.30;1.00;;;;;;5020426;28;19932;-83
2023/07/17 02:22:05;;;;;;;;;;;17.30;1.00;;;;;;5018068;28;19932;-82
2023/07/17 02:24:31;;;;;;;;;;;17.30;1.00;;;;;;5022300;28;20011;-82
2023/07/17 02:26:58;;;;;;;;;;;17.30;1.00;;;;;;5023978;28;19982;-82
2023/07/17 02:29:24;;;;;;;;;;;17.30;1.00;;;;;;5041363;28;20351;-82
2023/07/17 02:31:50;;;;;;;;;;;17.20;1.00;;;;;;5025806;28;20011;-82
2023/07/17 02:34:15;;;;;;;;;;;17.20;1.00;;;;;;5025862;28;20547;-82
2023/07/17 02:36:42;;;;;;;;;;;17.20;1.00;;;;;;5023473;28;20489;-82
2023/07/17 02:39:08;;;;;;;;;;;17.20;1.00;;;;;;5015512;28;20381;-81
2023/07/17 02:41:33;;;;;;;;;;;17.20;1.00;;;;;;5058348;28;19933;-82
2023/07/17 02:43:59;;;;;;;;;;;17.20;1.00;;;;;;5024120;28;19932;-82
2023/07/17 02:46:24;;;;;;;;;;;17.20;1.00;;;;;;5025062;28;19983;-81
2023/07/17 02:48:50;;;;;;;;;;;15.80;1.00;;;;;;5034046;28;20351;-82
2023/07/17 02:51:16;;;;;;;;;;;17.10;1.00;;;;;;5041218;28;20398;-82
2023/07/17 02:53:41;;;;;;;;;;;17.10;1.00;;;;;;5040550;28;20016;-81
2023/07/17 02:56:08;;;;;;;;;;;17.10;1.00;;;;;;5021036;28;20445;-80
2023/07/17 02:58:34;;;;;;;;;;;17.10;1.00;;;;;;5013557;28;20521;-83
2023/07/17 03:01:00;;;;;;;;;;;15.90;1.00;;;;;;5039348;28;19928;-82
2023/07/17 03:03:28;;;;;;;;;;;17.10;1.00;;;;;;5020981;28;21306;-81
2023/07/17 03:05:55;;;;;;;;;;;17.10;1.00;;;;;;5022569;28;19929;-82
2023/07/17 03:08:21;;;;;;;;;;;17.20;1.00;;;;;;5055745;28;20042;-84
2023/07/17 03:10:46;;;;;;;;;;;17.10;1.00;;;;;;5061340;28;20019;-82
2023/07/17 03:13:12;;;;;;;;;;;17.20;1.00;;;;;;5028203;28;20293;-81
2023/07/17 03:15:38;;;;;;;;;;;17.20;1.00;;;;;;5019259;28;19936;-84
2023/07/17 03:18:03;;;;;;;;;;;17.20;1.00;;;;;;5024487;28;19972;-83
2023/07/17 03:20:29;;;;;;;;;;;17.20;1.00;;;;;;5065806;28;19931;-80
2023/07/17 03:22:55;;;;;;;;;;;17.20;1.00;;;;;;5029727;28;20286;-82
2023/07/17 03:25:21;;;;;;;;;;;17.20;1.00;;;;;;5041594;28;20014;-81
2023/07/17 03:27:47;;;;;;;;;;;17.20;1.00;;;;;;5023290;28;19939;-82
2023/07/17 03:30:12;;;;;;;;;;;17.20;1.00;;;;;;5020513;28;20291;-81
2023/07/17 03:32:38;;;;;;;;;;;17.20;1.00;;;;;;5022698;28;19928;-81
2023/07/17 03:35:05;;;;;;;;;;;17.20;1.00;;;;;;5022472;28;19933;-83
2023/07/17 03:37:30;;;;;;;;;;;17.20;1.00;;;;;;5038755;28;20375;-83
2023/07/17 03:39:56;;;;;;;;;;;17.20;1.00;;;;;;5004009;28;19940;-83
2023/07/17 03:42:22;;;;;;;;;;;17.20;1.00;;;;;;5029104;28;19932;-81
2023/07/17 03:44:47;;;;;;;;;;;17.20;1.00;;;;;;5020687;28;19933;-79
2023/07/17 03:47:13;;;;;;;;;;;17.20;1.00;;;;;;5040358;28;20334;-85
2023/07/17 03:49:39;;;;;;;;;;;17.20;1.00;;;;;;5033828;28;19928;-81
2023/07/17 03:52:05;;;;;;;;;;;17.20;1.00;;;;;;5008938;28;19928;-79
2023/07/17 03:54:30;;;;;;;;;;;17.20;1.00;;;;;;5022475;28;19977;-77
2023/07/17 03:56:56;;;;;;;;;;;17.20;1.00;;;;;;5031563;28;20075;-82
2023/07/17 03:59:22;;;;;;;;;;;17.20;1.00;;;;;;5041434;28;19933;-84
2023/07/17 04:01:48;;;;;;;;;;;17.20;1.00;;;;;;5047153;28;19939;-80
2023/07/17 04:04:13;;;;;;;;;;;17.20;1.00;;;;;;5058826;28;20271;-83
2023/07/17 04:06:39;;;;;;;;;;;17.20;1.00;;;;;;5025869;28;20021;-81
2023/07/17 04:09:05;;;;;;;;;;;17.10;1.00;;;;;;5021038;28;20459;-79
2023/07/17 04:11:30;;;;;;;;;;;17.10;1.00;;;;;;5020801;28;20047;-81
2023/07/17 04:13:56;;;;;;;;;;;17.00;1.00;;;;;;5019124;28;19936;-82
2023/07/17 04:16:25;;;;;;;;;;;16.90;1.00;;;;;;5035012;28;20055;-81
2023/07/17 04:18:51;;;;;;;;;;;16.80;1.00;;;;;;5030071;28;19925;-80
2023/07/17 04:21:16;;;;;;;;;;;16.80;1.00;;;;;;5017216;28;20534;-79
2023/07/17 04:23:42;;;;;;;;;;;16.80;1.00;;;;;;5031998;28;19939;-86
2023/07/17 04:26:07;;;;;;;;;;;16.80;1.00;;;;;;5031579;28;20268;-81
2023/07/17 04:28:33;;;;;;;;;;;16.70;1.00;;;;;;5016731;28;19933;-78
2023/07/17 04:31:02;;;;;;;;;;;16.80;1.70;;;;;;5013001;28;19925;-86
2023/07/17 04:33:28;;;;;;;;;;;16.80;8.10;;;;;;5021347;28;19939;-76
2023/07/17 04:35:54;;;;;;;;;;;16.80;2.10;;;;;;5030258;28;19928;-78
2023/07/17 04:38:19;;;;;;;;;;;16.70;1.00;;;;;;5061062;28;20693;-81
2023/07/17 04:40:45;;;;;;;;;;;16.70;1.00;;;;;;5028219;28;20110;-84
2023/07/17 04:43:10;;;;;;;;;;;16.70;1.90;;;;;;5039255;28;20419;-80
2023/07/17 04:45:42;;;;;;;;;;;16.70;3.10;;;;;;5028259;28;20007;-80
2023/07/17 04:48:08;;;;;;;;;;;16.70;7.60;;;;;;5009447;28;19929;-77
2023/07/17 04:50:33;;;;;;;;;;;16.60;7.90;;;;;;5023321;28;19947;-78
2023/07/17 04:52:59;;;;;;;;;;;16.50;9.80;;;;;;5027433;28;20347;-78
2023/07/17 04:55:25;;;;;;;;;;;16.50;13.50;;;;;;5027577;28;19929;-78
2023/07/17 04:57:50;;;;;;;;;;;16.50;15.80;;;;;;5020026;28;20015;-81
2023/07/17 05:00:16;;;;;;;;;;;16.40;12.00;;;;;;5000431;28;20418;-79
2023/07/17 05:02:42;;;;;;;;;;;16.40;12.10;;;;;;5017602;28;20027;-81
2023/07/17 05:05:07;;;;;;;;;;;16.30;10.80;;;;;;5046536;28;20020;-85
2023/07/17 05:07:33;;;;;;;;;;;16.30;10.70;;;;;;5064455;28;20383;-81
2023/07/17 05:10:21;;;;;;;;;;;16.30;10.80;;;;;;5038086;28;19941;-83
2023/07/17 05:12:47;;;;;;;;;;;16.20;10.80;;;;;;5024583;28;20258;-80
2023/07/17 05:15:12;;;;;;;;;;;16.30;10.10;;;;;;5004038;28;19933;-80
2023/07/17 05:17:44;;;;;;;;;;;16.40;8.10;;;;;;5021088;28;19978;-81
2023/07/17 05:20:10;;;;;;;;;;;16.50;6.40;;;;;;5020036;28;22356;-80
2023/07/17 05:22:35;;;;;;;;;;;16.60;7.80;;;;;;5010720;28;19950;-80
2023/07/17 05:25:01;;;;;;;;;;;16.70;4.60;;;;;;5055808;28;19924;-78
2023/07/17 05:27:26;;;;;;;;;;;16.80;4.40;;;;;;5058603;28;19929;-78
2023/07/17 05:29:52;;;;;;;;;;;16.80;3.50;;;;;;5006454;28;19974;-78
2023/07/17 05:32:18;;;;;;;;;;;16.80;1.70;;;;;;5007110;28;20531;-81
2023/07/17 05:34:43;;;;;;;;;;;16.80;1.70;;;;;;5055150;28;20313;-79
2023/07/17 05:37:09;;;;;;;;;;;16.80;1.00;;;;;;5042853;28;19935;-77
2023/07/17 05:39:34;;;;;;;;;;;16.70;1.00;;;;;;5042390;28;20291;-77
2023/07/17 05:42:00;;;;;;;;;;;16.70;1.00;;;;;;5022369;28;20543;-76
2023/07/17 05:44:26;;;;;;;;;;;16.70;1.00;;;;;;5006581;28;19936;-81
2023/07/17 05:46:51;;;;;;;;;;;16.70;1.00;;;;;;5020990;28;19928;-77
2023/07/17 05:49:17;;;;;;;;;;;16.60;1.00;;;;;;5019443;28;19939;-76
2023/07/17 05:51:42;;;;;;;;;;;16.70;1.00;;;;;;5021360;28;19935;-75
2023/07/17 05:54:08;;;;;;;;;;;16.60;1.00;;;;;;5021871;28;20074;-76
2023/07/17 05:56:34;;;;;;;;;;;16.70;1.00;;;;;;5037787;28;19935;-77
2023/07/17 05:58:59;;;;;;;;;;;16.90;1.00;;;;;;5019446;28;19940;-77
2023/07/17 06:01:25;;;;;;;;;;;16.00;1.00;;;;;;5024584;28;20397;-75
2023/07/17 06:03:50;;;;;;;;;;;17.20;1.00;;;;;;5020884;28;19925;-76
2023/07/17 06:06:16;;;;;;;;;;;17.30;1.00;;;;;;5039620;28;20037;-77
2023/07/17 06:08:42;;;;;;;;;;;17.30;1.00;;;;;;5022065;28;20344;-75
2023/07/17 06:11:07;;;;;;;;;;;17.40;1.00;;;;;;5023958;28;21330;-78
2023/07/17 06:13:33;;;;;;;;;;;17.30;1.00;;;;;;5056306;28;19932;-76
2023/07/17 06:15:58;;;;;;;;;;;17.30;1.00;;;;;;5020966;28;19929;-76
2023/07/17 06:18:24;;;;;;;;;;;17.30;1.00;;;;;;5016822;28;21194;-76
2023/07/17 06:20:50;;;;;;;;;;;17.30;1.00;;;;;;5023889;28;19939;-75
2023/07/17 06:23:16;;;;;;;;;;;17.40;1.00;;;;;;5022042;28;19994;-78
2023/07/17 06:25:41;;;;;;;;;;;17.50;1.00;;;;;;5021180;28;19955;-75
2023/07/17 06:28:08;;;;;;;;;;;17.60;1.00;;;;;;5003391;28;20581;-76
2023/07/17 06:30:33;;;;;;;;;;;17.70;1.00;;;;;;5036052;28;20027;-77
2023/07/17 06:32:59;;;;;;;;;;;17.80;1.00;;;;;;5016314;28;20261;-75
2023/07/17 06:35:25;;;;;;;;;;;17.90;1.00;;;;;;5021322;28;19925;-77
2023/07/17 06:37:51;;;;;;;;;;;17.90;1.00;;;;;;5039534;28;19929;-76
2023/07/17 06:40:16;;;;;;;;;;;17.90;1.00;;;;;;5055013;28;19974;-76
2023/07/17 06:42:42;;;;;;;;;;;18.00;1.00;;;;;;5023304;28;20453;-79
2023/07/17 06:45:08;;;;;;;;;;;17.90;1.00;;;;;;5021000;28;19931;-76
2023/07/17 06:47:33;;;;;;;;;;;17.90;1.00;;;;;;5006132;28;19929;-76
2023/07/17 06:49:59;;;;;;;;;;;17.90;1.00;;;;;;5057505;28;19939;-78
2023/07/17 06:52:24;;;;;;;;;;;17.90;1.00;;;;;;5025470;28;19960;-74
2023/07/17 06:54:50;;;;;;;;;;;17.80;1.00;;;;;;5012204;28;19925;-76
2023/07/17 06:57:16;;;;;;;;;;;17.80;1.00;;;;;;5040082;28;19928;-75
2023/07/17 06:59:41;;;;;;;;;;;17.90;1.00;;;;;;5038172;28;19936;-76
2023/07/17 07:02:07;;;;;;;;;;;18.10;1.00;;;;;;5013744;28;20614;-80
2023/07/17 07:04:32;;;;;;;;;;;18.20;1.00;;;;;;5039709;28;20576;-75
2023/07/17 07:06:58;;;;;;;;;;;18.40;99.90;;;;;;5024608;28;19935;-75
2023/07/17 07:09:24;;;;;;;;;;;18.40;99.90;;;;;;5057854;28;19925;-77
2023/07/17 07:11:49;;;;;;;;;;;18.30;99.90;;;;;;5024954;28;19929;-77
2023/07/17 07:14:15;;;;;;;;;;;18.40;99.90;;;;;;5023895;28;20143;-78
2023/07/17 07:16:40;;;;;;;;;;;18.50;99.90;;;;;;5009833;28;20252;-80
2023/07/17 07:19:06;;;;;;;;;;;18.60;1.00;;;;;;5026228;28;19939;-82
2023/07/17 07:21:32;;;;;;;;;;;18.50;1.00;;;;;;5006072;28;19933;-79
2023/07/17 07:23:57;;;;;;;;;;;18.50;99.90;;;;;;5023775;28;19940;-82
2023/07/17 07:26:23;;;;;;;;;;;18.50;1.00;;;;;;5019608;28;20390;-78
2023/07/17 07:28:48;;;;;;;;;;;18.60;99.90;;;;;;5004105;28;19932;-81
2023/07/17 07:31:14;;;;;;;;;;;18.80;1.00;;;;;;5025541;28;20789;-77
2023/07/17 07:33:41;;;;;;;;;;;19.00;99.90;;;;;;5023588;28;20015;-77
2023/07/17 07:36:07;;;;;;;;;;;19.20;99.90;;;;;;5041398;28;19940;-77
2023/07/17 07:38:32;;;;;;;;;;;19.10;1.00;;;;;;5029353;28;19994;-77
2023/07/17 07:40:58;;;;;;;;;;;19.00;99.90;;;;;;5031076;28;19932;-76
2023/07/17 07:43:23;;;;;;;;;;;18.90;2.50;;;;;;5038299;28;20364;-76
2023/07/17 07:45:49;;;;;;;;;;;19.00;99.90;;;;;;5045017;28;19932;-76
2023/07/17 07:48:14;;;;;;;;;;;19.10;99.90;;;;;;5035968;28;19932;-76
2023/07/17 07:50:40;;;;;;;;;;;19.00;1.00;;;;;;5038222;28;19946;-76
2023/07/17 07:53:06;;;;;;;;;;;18.90;99.90;;;;;;5035519;28;19929;-76
2023/07/17 07:55:32;;;;;;;;;;;18.90;1.00;;;;;;5017605;28;19924;-76
2023/07/17 07:57:58;;;;;;;;;;;19.10;99.90;;;;;;5051448;28;19939;-77
2023/07/17 08:00:24;;;;;;;;;;;19.10;99.90;;;;;;5068545;28;19929;-76
2023/07/17 08:02:50;;;;;;;;;;;19.20;1.00;;;;;;5032401;28;19932;-77
2023/07/17 08:05:15;;;;;;;;;;;19.30;1.00;;;;;;5032925;28;20728;-77
2023/07/17 08:07:41;;;;;;;;;;;19.30;99.90;;;;;;5035396;28;19925;-76
2023/07/17 08:10:07;;;;;;;;;;;19.40;99.90;;;;;;5049516;28;19974;-77
2023/07/17 08:12:33;;;;;;;;;;;19.60;99.90;;;;;;5010162;28;20174;-76
2023/07/17 08:14:58;;;;;;;;;;;19.70;1.00;;;;;;5031024;28;19995;-77
2023/07/17 08:17:24;;;;;;;;;;;19.90;1.00;;;;;;5026928;28;20514;-77
2023/07/17 08:19:49;;;;;;;;;;;20.00;99.90;;;;;;5058848;28;19924;-77
2023/07/17 08:22:15;;;;;;;;;;;20.20;99.90;;;;;;5037270;28;20197;-77
2023/07/17 08:24:41;;;;;;;;;;;20.30;99.90;;;;;;5064221;28;19931;-79
2023/07/17 08:27:06;;;;;;;;;;;20.30;77.50;;;;;;5027353;28;20411;-77
2023/07/17 08:29:32;;;;;;;;;;;20.30;74.10;;;;;;5024656;28;19931;-78
2023/07/17 08:31:58;;;;;;;;;;;20.30;1.00;;;;;;5060796;28;19939;-77
2023/07/17 08:34:23;;;;;;;;;;;20.20;1.00;;;;;;5025889;28;19925;-81
2023/07/17 08:36:49;;;;;;;;;;;20.20;1.00;;;;;;5027013;28;19936;-77
2023/07/17 08:39:21;;;;;;;;;;;20.20;1.00;;;;;;5022565;28;19935;-78
2023/07/17 08:41:47;;;;;;;;;;;20.30;99.90;;;;;;5028254;28;19928;-78
2023/07/17 08:44:15;;;;;;;;;;;20.50;99.90;;;;;;5058554;28;19932;-78
2023/07/17 08:46:41;;;;;;;;;;;20.70;99.90;;;;;;5035516;28;19928;-77
2023/07/17 08:49:06;;;;;;;;;;;20.80;99.90;;;;;;5029550;28;19942;-77
2023/07/17 08:51:32;;;;;;;;;;;20.80;72.70;;;;;;5044089;28;19932;-79
2023/07/17 08:53:59;;;;;;;;;;;20.90;77.90;;;;;;5021011;28;19939;-81
2023/07/17 08:56:26;;;;;;;;;;;21.10;39.80;;;;;;5028851;28;20374;-77
2023/07/17 08:58:54;;;;;;;;;;;21.20;1.50;;;;;;5032256;28;19971;-78
2023/07/17 09:01:19;;;;;;;;;;;21.10;1.00;;;;;;5030568;28;19925;-78
2023/07/17 09:03:45;;;;;;;;;;;21.20;1.00;;;;;;5031544;28;19974;-81
2023/07/17 09:06:12;;;;;;;;;;;21.30;1.00;;;;;;5027621;28;20951;-76
2023/07/17 09:08:38;;;;;;;;;;;21.30;1.00;;;;;;5053518;28;19940;-77
2023/07/17 09:11:05;;;;;;;;;;;21.40;1.00;;;;;;5028357;28;21129;-79
2023/07/17 09:13:40;;;;;;;;;;;21.30;99.90;;;;;;5026784;28;19936;-81
2023/07/17 09:16:13;;;;;;;;;;;21.50;99.90;;;;;;5046939;28;20291;-83
2023/07/17 09:18:38;;;;;;;;;;;21.40;99.90;;;;;;5028777;28;19932;-78
2023/07/17 09:21:04;;;;;;;;;;;21.50;99.90;;;;;;5042212;28;19935;-83
2023/07/17 09:23:37;;;;;;;;;;;21.60;99.90;;;;;;5039844;28;20486;-78
2023/07/17 09:26:03;;;;;;;;;;;21.70;99.90;;;;;;5041840;28;19925;-78
2023/07/17 09:28:29;;;;;;;;;;;21.90;99.90;;;;;;5018662;28;20481;-80
2023/07/17 09:31:01;;;;;;;;;;;22.00;99.90;;;;;;5038011;28;20351;-77
2023/07/17 09:33:26;;;;;;;;;;;22.00;99.90;;;;;;5026721;28;20264;-77
2023/07/17 09:35:56;;;;;;;;;;;22.00;99.90;;;;;;5005562;28;19925;-78
2023/07/17 09:38:22;;;;;;;;;;;21.90;99.90;;;;;;5060292;28;20505;-77
2023/07/17 09:40:48;;;;;;;;;;;22.00;99.90;;;;;;5012965;28;20022;-76
2023/07/17 09:43:14;;;;;;;;;;;22.00;99.90;;;;;;5003226;28;20332;-80
2023/07/17 09:45:40;;;;;;;;;;;22.00;99.90;;;;;;5037558;28;19929;-80
2023/07/17 09:48:05;;;;;;;;;;;22.20;99.90;;;;;;5039946;28;19932;-78
2023/07/17 09:50:31;;;;;;;;;;;22.20;99.90;;;;;;5022865;28;20407;-81
2023/07/17 09:52:57;;;;;;;;;;;22.10;99.90;;;;;;5022084;28;19968;-82
2023/07/17 09:55:31;;;;;;;;;;;22.10;99.90;;;;;;5022841;28;19936;-77
2023/07/17 09:57:59;;;;;;;;;;;22.10;99.90;;;;;;5052392;28;19933;-80
2023/07/17 10:00:24;;;;;;;;;;;22.20;99.90;;;;;;5024256;28;19924;-79
2023/07/17 10:03:09;;;;;;;;;;;22.30;99.90;;;;;;5053390;28;19936;-83
2023/07/17 10:05:35;;;;;;;;;;;22.20;81.70;;;;;;5056608;28;20239;-77
2023/07/17 10:08:03;;;;;;;;;;;22.50;95.90;;;;;;5052880;28;19971;-76
2023/07/17 10:10:29;;;;;;;;;;;22.60;90.00;;;;;;5053671;28;19971;-79
2023/07/17 10:12:55;;;;;;;;;;;22.40;67.60;;;;;;5035091;28;20003;-76
2023/07/17 10:15:21;;;;;;;;;;;22.40;74.70;;;;;;5037096;28;19936;-80
2023/07/17 10:17:54;;;;;;;;;;;22.50;83.10;;;;;;5025816;28;20457;-77
2023/07/17 10:20:19;;;;;;;;;;;22.60;90.40;;;;;;5021754;28;19932;-77
2023/07/17 10:22:45;;;;;;;;;;;22.60;81.60;;;;;;5020853;28;19928;-82
2023/07/17 10:25:16;;;;;;;;;;;22.50;81.30;;;;;;5024470;28;19932;-78
2023/07/17 10:27:45;;;;;;;;;;;22.40;88.40;;;;;;5010060;28;20806;-76
2023/07/17 10:30:24;;;;;;;;;;;22.50;91.60;;;;;;5056133;28;19959;-75
2023/07/17 10:32:51;;;;;;;;;;;22.50;90.10;;;;;;5021788;28;19928;-77
2023/07/17 10:35:19;;;;;;;;;;;22.60;92.00;;;;;;5018830;28;19943;-76
2023/07/17 10:37:45;;;;;;;;;;;22.60;70.30;;;;;;5023482;28;21725;-82
2023/07/17 10:40:29;;;;;;;;;;;22.30;63.40;;;;;;5025653;28;19936;-75
2023/07/17 10:43:09;;;;;;;;;;;23.10;45.10;;;;;;5023784;28;19932;-81
2023/07/17 10:45:34;;;;;;;;;;;23.00;33.10;;;;;;5030750;28;20476;-78
2023/07/17 10:48:00;;;;;;;;;;;23.10;18.70;;;;;;5008304;28;19936;-75
2023/07/17 10:50:26;;;;;;;;;;;23.30;10.80;;;;;;5027422;28;19967;-81
2023/07/17 10:52:52;;;;;;;;;;;23.40;1.00;;;;;;5063127;28;19976;-77
2023/07/17 10:55:17;;;;;;;;;;;23.40;1.00;;;;;;5031572;28;20193;-75
2023/07/17 10:57:43;;;;;;;;;;;23.70;1.00;;;;;;5020320;28;19935;-78
2023/07/17 11:00:10;;;;;;;;;;;23.90;1.00;;;;;;5034126;28;19948;-75
2023/07/17 11:02:35;;;;;;;;;;;23.80;1.00;;;;;;5014553;28;19941;-78
2023/07/17 11:05:03;;;;;;;;;;;23.70;1.00;;;;;;5069945;28;19929;-83
2023/07/17 11:07:35;;;;;;;;;;;23.50;1.00;;;;;;5014124;28;19929;-77
2023/07/17 11:10:01;;;;;;;;;;;23.50;1.00;;;;;;5013147;28;19932;-77
2023/07/17 11:12:27;;;;;;;;;;;23.60;1.00;;;;;;5033622;28;20273;-78
2023/07/17 11:14:53;;;;;;;;;;;23.70;1.00;;;;;;5031842;28;19940;-78
2023/07/17 11:17:18;;;;;;;;;;;23.80;1.00;;;;;;5063249;28;19970;-78
2023/07/17 11:19:44;;;;;;;;;;;23.80;1.00;;;;;;5028978;28;19928;-77
2023/07/17 11:22:10;;;;;;;;;;;23.90;1.00;;;;;;5012197;28;19925;-78
2023/07/17 11:24:36;;;;;;;;;;;23.80;1.00;;;;;;5047606;28;19964;-77
2023/07/17 11:27:02;;;;;;;;;;;24.00;1.00;;;;;;5045330;28;20248;-79
2023/07/17 11:29:28;;;;;;;;;;;24.00;1.00;;;;;;5046940;28;20424;-79
2023/07/17 11:31:59;;;;;;;;;;;23.90;1.00;;;;;;5030375;28;19963;-79
2023/07/17 11:34:25;;;;;;;;;;;24.00;1.00;;;;;;5027922;28;20291;-79
2023/07/17 11:36:51;;;;;;;;;;;23.90;1.00;;;;;;5013737;28;19935;-78
2023/07/17 11:39:17;;;;;;;;;;;23.80;1.00;;;;;;5027290;28;20137;-78
2023/07/17 11:41:46;;;;;;;;;;;23.80;1.00;;;;;;5032494;28;19928;-79
2023/07/17 11:44:14;;;;;;;;;;;23.80;1.00;;;;;;5067042;28;19933;-78
2023/07/17 11:46:40;;;;;;;;;;;23.80;1.00;;;;;;5032167;28;20019;-78
2023/07/17 11:49:06;;;;;;;;;;;23.50;1.00;;;;;;5029718;28;19929;-77
2023/07/17 11:51:32;;;;;;;;;;;23.50;1.00;;;;;;5036235;28;19948;-79
2023/07/17 11:54:05;;;;;;;;;;;23.40;1.00;;;;;;5029944;28;20395;-77
2023/07/17 11:56:34;;;;;;;;;;;23.50;1.00;;;;;;5043958;28;19932;-79
2023/07/17 11:59:00;;;;;;;;;;;23.40;1.00;;;;;;5058970;28;19939;-78
2023/07/17 12:01:26;;;;;;;;;;;23.60;1.00;;;;;;5014299;28;19928;-81
2023/07/17 12:03:51;;;;;;;;;;;23.50;1.00;;;;;;5027476;28;19929;-77
2023/07/17 12:06:17;;;;;;;;;;;23.50;1.00;;;;;;5026804;28;19924;-78
2023/07/17 12:08:43;;;;;;;;;;;23.30;1.00;;;;;;5030020;28;20027;-76
2023/07/17 12:11:09;;;;;;;;;;;23.30;1.00;;;;;;5041553;28;19932;-78
2023/07/17 12:13:34;;;;;;;;;;;23.40;1.00;;;;;;5043924;28;20428;-78
2023/07/17 12:16:00;;;;;;;;;;;23.50;1.00;;;;;;5028014;28;19925;-77
2023/07/17 12:18:26;;;;;;;;;;;23.40;1.00;;;;;;5029909;28;19968;-79
2023/07/17 12:20:51;;;;;;;;;;;23.80;1.00;;;;;;5045576;28;19932;-77
2023/07/17 12:23:18;;;;;;;;;;;24.00;1.00;;;;;;5028662;28;20043;-78
2023/07/17 12:25:45;;;;;;;;;;;24.00;1.00;;;;;;5016005;28;19929;-78
2023/07/17 12:28:11;;;;;;;;;;;24.00;1.00;;;;;;5034331;28;19936;-77
2023/07/17 12:30:36;;;;;;;;;;;23.80;1.00;;;;;;5033924;28;19921;-78
2023/07/17 12:33:02;;;;;;;;;;;24.10;1.00;;;;;;5032038;28;20330;-80
2023/07/17 12:35:28;;;;;;;;;;;24.20;1.00;;;;;;5032699;28;20513;-77
2023/07/17 12:37:53;;;;;;;;;;;24.10;1.00;;;;;;5052778;28;20291;-77
2023/07/17 12:40:19;;;;;;;;;;;24.10;1.00;;;;;;5033526;28;20317;-77
2023/07/17 12:42:45;;;;;;;;;;;24.20;1.00;;;;;;5052178;28;19921;-78
2023/07/17 12:45:10;;;;;;;;;;;24.20;1.00;;;;;;5035542;28;19940;-77
2023/07/17 12:47:36;;;;;;;;;;;24.30;1.00;;;;;;5034232;28;19932;-80
2023/07/17 12:50:02;;;;;;;;;;;24.30;1.00;;;;;;5031871;28;19929;-80
2023/07/17 12:52:27;;;;;;;;;;;24.20;1.00;;;;;;5032007;28;20450;-80
2023/07/17 12:54:53;;;;;;;;;;;24.20;1.00;;;;;;5033911;28;20056;-79
2023/07/17 12:57:19;;;;;;;;;;;24.20;1.00;;;;;;5034435;28;20375;-80
2023/07/17 12:59:45;;;;;;;;;;;24.20;1.00;;;;;;5034717;28;20454;-82
2023/07/17 13:02:10;;;;;;;;;;;24.00;1.00;;;;;;5022221;28;19924;-80
2023/07/17 13:04:36;;;;;;;;;;;24.10;1.00;;;;;;5017439;28;19928;-79
2023/07/17 13:07:01;;;;;;;;;;;24.10;1.00;;;;;;5033679;28;19951;-79
2023/07/17 13:09:27;;;;;;;;;;;24.00;1.00;;;;;;5034961;28;19928;-79
2023/07/17 13:11:56;;;;;;;;;;;24.00;1.00;;;;;;5044231;28;19995;-80
2023/07/17 13:14:22;;;;;;;;;;;23.90;1.00;;;;;;5063029;28;19960;-80
2023/07/17 13:16:48;;;;;;;;;;;24.10;1.00;;;;;;5018198;28;19978;-81
2023/07/17 13:19:13;;;;;;;;;;;24.30;1.00;;;;;;5032738;28;19972;-81
2023/07/17 13:21:39;;;;;;;;;;;24.00;1.00;;;;;;5068625;28;19932;-80
2023/07/17 13:24:05;;;;;;;;;;;24.20;1.00;;;;;;5049311;28;20016;-81
2023/07/17 13:26:33;;;;;;;;;;;24.20;1.00;;;;;;5016722;28;19929;-79
2023/07/17 13:29:00;;;;;;;;;;;24.20;1.00;;;;;;5019164;28;19970;-79
2023/07/17 13:31:26;;;;;;;;;;;24.00;1.00;;;;;;5066126;28;19948;-81
2023/07/17 13:33:51;;;;;;;;;;;23.70;1.00;;;;;;5037436;28;19928;-80
2023/07/17 13:36:17;;;;;;;;;;;23.60;1.00;;;;;;5037731;28;19955;-80
2023/07/17 13:38:43;;;;;;;;;;;23.40;1.00;;;;;;5048919;28;19928;-81
2023/07/17 13:41:13;;;;;;;;;;;23.30;1.00;;;;;;5027779;28;19956;-79
2023/07/17 13:43:39;;;;;;;;;;;23.30;1.00;;;;;;5067069;28;19924;-80
2023/07/17 13:46:04;;;;;;;;;;;23.20;1.00;;;;;;5031677;28;19986;-80
2023/07/17 13:48:30;;;;;;;;;;;23.30;1.00;;;;;;5034610;28;20023;-81
2023/07/17 13:50:55;;;;;;;;;;;23.30;1.00;;;;;;5037732;28;20015;-81
2023/07/17 13:53:21;;;;;;;;;;;23.30;1.00;;;;;;5036874;28;19925;-79
2023/07/17 13:55:47;;;;;;;;;;;23.40;1.00;;;;;;5035913;28;19929;-81
2023/07/17 13:58:12;;;;;;;;;;;23.40;1.00;;;;;;5022421;28;19936;-81
2023/07/17 14:00:38;;;;;;;;;;;23.50;1.00;;;;;;5039487;28;20451;-82
2023/07/17 14:03:03;;;;;;;;;;;23.50;1.00;;;;;;5019619;28;19933;-81
2023/07/17 14:05:29;;;;;;;;;;;23.50;1.00;;;;;;5054998;28;20295;-82
2023/07/17 14:07:54;;;;;;;;;;;23.60;1.00;;;;;;5039553;28;19985;-80
2023/07/17 14:10:22;;;;;;;;;;;23.60;1.00;;;;;;5072738;28;19928;-80
2023/07/17 14:12:48;;;;;;;;;;;23.50;1.00;;;;;;5036936;28;19929;-81
2023/07/17 14:15:14;;;;;;;;;;;23.60;1.00;;;;;;5053054;28;19993;-81
2023/07/17 14:17:40;;;;;;;;;;;23.70;1.00;;;;;;5037849;28;19931;-81
2023/07/17 14:20:06;;;;;;;;;;;23.80;1.00;;;;;;5069777;28;19929;-81